createdAt,value
2018-06-13T00:00:38.012Z,29.05
2018-06-13T00:02:32.362Z,29.30
2018-06-13T00:03:32.348Z,29.05
2018-06-13T00:05:26.423Z,29.54
2018-06-13T00:06:26.430Z,29.54
2018-06-13T00:08:20.567Z,29.54
2018-06-13T00:09:20.532Z,31.01
2018-06-13T00:11:14.652Z,29.54
2018-06-13T00:12:14.634Z,29.30
2018-06-13T00:14:08.720Z,29.54
2018-06-13T00:15:08.720Z,29.54
2018-06-13T00:17:02.917Z,29.54
2018-06-13T00:18:02.905Z,31.01
2018-06-13T00:19:56.981Z,29.30
2018-06-13T00:20:56.986Z,29.30
2018-06-13T00:22:51.099Z,29.54
2018-06-13T00:23:51.081Z,29.54
2018-06-13T00:25:45.158Z,29.54
2018-06-13T00:26:45.159Z,29.05
2018-06-13T00:28:39.281Z,29.30
2018-06-13T00:29:39.267Z,29.54
2018-06-13T00:31:33.401Z,29.79
2018-06-13T00:32:33.378Z,29.30
2018-06-13T00:34:27.464Z,32.47
2018-06-13T00:35:27.471Z,29.54
2018-06-13T00:37:21.595Z,29.79
2018-06-13T00:38:21.580Z,29.30
2018-06-13T00:40:15.669Z,29.79
2018-06-13T00:41:15.674Z,29.54
2018-06-13T00:43:09.811Z,29.54
2018-06-13T00:44:09.799Z,29.79
2018-06-13T00:46:03.873Z,30.52
2018-06-13T00:47:03.941Z,29.30
2018-06-13T00:48:57.984Z,29.30
2018-06-13T00:49:57.965Z,30.03
2018-06-13T00:51:52.049Z,29.05
2018-06-13T00:52:52.048Z,29.54
2018-06-13T00:54:46.656Z,29.30
2018-06-13T00:55:46.633Z,29.79
2018-06-13T00:57:40.734Z,29.30
2018-06-13T00:58:40.717Z,29.54
2018-06-13T01:00:34.923Z,29.54
2018-06-13T01:01:34.930Z,29.05
2018-06-13T01:03:29.028Z,29.30
2018-06-13T01:04:29.027Z,32.23
2018-06-13T01:06:23.128Z,29.54
2018-06-13T01:07:23.135Z,28.81
2018-06-13T01:09:17.236Z,30.27
2018-06-13T01:10:17.220Z,29.54
2018-06-13T01:12:11.304Z,29.79
2018-06-13T01:13:11.309Z,29.54
2018-06-13T01:15:05.410Z,29.54
2018-06-13T01:16:05.390Z,29.79
2018-06-13T01:18:00.488Z,29.30
2018-06-13T01:19:00.466Z,29.54
2018-06-13T01:20:54.560Z,29.30
2018-06-13T01:21:54.563Z,29.54
2018-06-13T01:23:48.674Z,29.54
2018-06-13T01:24:48.656Z,34.18
2018-06-13T01:26:42.757Z,29.54
2018-06-13T01:27:42.751Z,29.79
2018-06-13T01:29:36.850Z,30.52
2018-06-13T01:30:36.828Z,30.03
2018-06-13T01:32:30.914Z,29.54
2018-06-13T01:33:30.920Z,29.54
2018-06-13T01:35:25.029Z,29.79
2018-06-13T01:36:25.003Z,30.03
2018-06-13T01:38:19.088Z,29.54
2018-06-13T01:39:19.099Z,29.54
2018-06-13T01:41:13.195Z,29.54
2018-06-13T01:42:13.181Z,30.03
2018-06-13T01:44:07.312Z,29.54
2018-06-13T01:45:07.278Z,29.54
2018-06-13T01:47:01.360Z,30.03
2018-06-13T01:48:01.364Z,29.79
2018-06-13T01:49:55.473Z,30.03
2018-06-13T01:50:55.451Z,30.27
2018-06-13T01:52:49.573Z,29.54
2018-06-13T01:53:49.550Z,29.54
2018-06-13T01:55:43.650Z,30.52
2018-06-13T01:56:43.630Z,29.79
2018-06-13T01:58:38.233Z,29.54
2018-06-13T01:59:38.234Z,29.54
2018-06-13T02:01:32.408Z,30.03
2018-06-13T02:02:32.324Z,29.54
2018-06-13T02:04:26.443Z,29.54
2018-06-13T02:05:26.420Z,29.54
2018-06-13T02:07:20.514Z,29.79
2018-06-13T02:08:20.513Z,30.76
2018-06-13T02:10:14.608Z,30.27
2018-06-13T02:11:14.587Z,31.49
2018-06-13T02:13:08.676Z,29.54
2018-06-13T02:14:08.673Z,29.54
2018-06-13T02:16:02.786Z,30.52
2018-06-13T02:17:02.765Z,29.79
2018-06-13T02:18:56.856Z,31.74
2018-06-13T02:19:56.852Z,30.03
2018-06-13T02:21:50.976Z,33.20
2018-06-13T02:22:50.960Z,30.03
2018-06-13T02:24:45.080Z,30.03
2018-06-13T02:25:45.067Z,30.52
2018-06-13T02:27:39.141Z,30.03
2018-06-13T02:28:39.144Z,30.03
2018-06-13T02:30:33.244Z,30.27
2018-06-13T02:31:33.228Z,30.27
2018-06-13T02:33:27.303Z,30.27
2018-06-13T02:34:27.307Z,30.52
2018-06-13T02:36:21.405Z,30.52
2018-06-13T02:37:21.390Z,30.27
2018-06-13T02:39:15.477Z,31.98
2018-06-13T02:40:15.486Z,32.71
2018-06-13T02:42:09.610Z,30.03
2018-06-13T02:43:09.590Z,30.76
2018-06-13T02:45:03.689Z,31.01
2018-06-13T02:46:03.682Z,29.79
2018-06-13T02:47:57.790Z,29.79
2018-06-13T02:48:57.772Z,36.13
2018-06-13T02:50:51.884Z,30.76
2018-06-13T02:51:51.860Z,30.76
2018-06-13T02:53:45.948Z,33.45
2018-06-13T02:54:45.963Z,30.76
2018-06-13T02:56:40.065Z,34.18
2018-06-13T02:57:40.039Z,30.52
2018-06-13T02:59:34.139Z,32.47
2018-06-13T03:00:34.132Z,31.74
2018-06-13T03:02:28.232Z,32.96
2018-06-13T03:03:28.214Z,30.52
2018-06-13T03:05:22.316Z,31.74
2018-06-13T03:06:22.321Z,40.53
2018-06-13T03:08:16.652Z,30.76
2018-06-13T03:09:16.643Z,29.79
2018-06-13T03:11:10.724Z,30.52
2018-06-13T03:12:10.723Z,30.03
2018-06-13T03:14:04.795Z,30.52
2018-06-13T03:15:04.791Z,30.03
2018-06-13T03:16:58.906Z,30.03
2018-06-13T03:17:58.892Z,30.76
2018-06-13T03:19:52.964Z,31.49
2018-06-13T03:20:53.051Z,30.76
2018-06-13T03:22:47.273Z,31.74
2018-06-13T03:23:47.222Z,31.98
2018-06-13T03:25:41.394Z,30.76
2018-06-13T03:26:41.398Z,32.71
2018-06-13T03:28:35.516Z,30.76
2018-06-13T03:29:35.500Z,30.52
2018-06-13T03:31:29.607Z,31.98
2018-06-13T03:32:29.594Z,29.79
2018-06-13T03:34:23.675Z,40.28
2018-06-13T03:35:23.681Z,31.25
2018-06-13T03:37:17.788Z,29.79
2018-06-13T03:38:17.770Z,31.49
2018-06-13T03:40:11.931Z,30.03
2018-06-13T03:41:11.984Z,31.25
2018-06-13T03:43:06.040Z,30.52
2018-06-13T03:44:06.018Z,30.52
2018-06-13T03:46:00.113Z,30.52
2018-06-13T03:47:00.126Z,30.03
2018-06-13T03:48:54.226Z,45.90
2018-06-13T03:49:54.218Z,34.18
2018-06-13T03:51:48.379Z,31.25
2018-06-13T03:52:48.359Z,30.76
2018-06-13T03:54:42.399Z,31.49
2018-06-13T03:55:42.394Z,31.98
2018-06-13T03:57:36.519Z,32.71
2018-06-13T03:58:36.520Z,38.57
2018-06-13T04:00:30.603Z,30.03
2018-06-13T04:01:30.606Z,30.52
2018-06-13T04:03:24.722Z,31.01
2018-06-13T04:04:24.699Z,31.49
2018-06-13T04:06:18.846Z,30.03
2018-06-13T04:07:18.865Z,36.13
2018-06-13T04:09:13.595Z,30.03
2018-06-13T04:10:13.592Z,40.77
2018-06-13T04:12:07.677Z,30.76
2018-06-13T04:13:07.656Z,31.25
2018-06-13T04:15:01.742Z,33.20
2018-06-13T04:16:01.794Z,33.20
2018-06-13T04:17:55.892Z,32.71
2018-06-13T04:18:55.833Z,41.99
2018-06-13T04:20:49.905Z,34.18
2018-06-13T04:21:49.919Z,31.49
2018-06-13T04:23:44.024Z,31.25
2018-06-13T04:24:44.005Z,45.65
2018-06-13T04:26:38.149Z,32.47
2018-06-13T04:27:38.144Z,37.35
2018-06-13T04:29:32.212Z,31.74
2018-06-13T04:30:32.199Z,42.24
2018-06-13T04:32:26.316Z,30.52
2018-06-13T04:33:26.292Z,30.27
2018-06-13T04:35:20.879Z,36.13
2018-06-13T04:36:20.889Z,34.67
2018-06-13T04:38:14.987Z,35.89
2018-06-13T04:39:14.978Z,31.01
2018-06-13T04:41:09.056Z,37.35
2018-06-13T04:42:09.074Z,45.41
2018-06-13T04:44:03.285Z,35.64
2018-06-13T04:45:03.203Z,40.53
2018-06-13T04:46:57.268Z,56.40
2018-06-13T04:47:57.272Z,30.76
2018-06-13T04:49:51.381Z,32.23
2018-06-13T04:50:51.364Z,33.94
2018-06-13T04:52:45.469Z,33.45
2018-06-13T04:53:45.480Z,35.16
2018-06-13T04:55:39.578Z,29.54
2018-06-13T04:56:39.566Z,38.82
2018-06-13T04:58:33.664Z,31.25
2018-06-13T04:59:33.645Z,37.11
2018-06-13T05:01:27.729Z,37.60
2018-06-13T05:02:27.731Z,35.40
2018-06-13T05:04:21.877Z,46.39
2018-06-13T05:05:21.844Z,53.96
2018-06-13T05:07:17.436Z,41.02
2018-06-13T05:08:17.433Z,39.79
2018-06-13T05:10:11.550Z,43.70
2018-06-13T05:11:11.629Z,28.56
2018-06-13T05:13:05.620Z,32.23
2018-06-13T05:14:05.619Z,36.62
2018-06-13T05:15:59.730Z,32.71
2018-06-13T05:16:59.714Z,37.11
2018-06-13T05:18:53.819Z,32.71
2018-06-13T05:19:53.825Z,31.74
2018-06-13T05:21:47.895Z,29.79
2018-06-13T05:22:47.895Z,30.52
2018-06-13T05:24:42.080Z,36.38
2018-06-13T05:25:42.064Z,35.64
2018-06-13T05:27:36.148Z,32.23
2018-06-13T05:28:36.185Z,35.40
2018-06-13T05:30:30.272Z,33.94
2018-06-13T05:31:30.251Z,33.94
2018-06-13T05:33:24.353Z,32.23
2018-06-13T05:34:24.389Z,30.76
2018-06-13T05:36:18.469Z,31.25
2018-06-13T05:37:18.457Z,30.27
2018-06-13T05:39:12.571Z,30.03
2018-06-13T05:40:12.534Z,40.04
2018-06-13T05:42:06.630Z,34.91
2018-06-13T05:43:06.630Z,47.36
2018-06-13T05:45:00.745Z,29.05
2018-06-13T05:46:00.733Z,49.80
2018-06-13T05:47:55.332Z,42.72
2018-06-13T05:48:55.350Z,40.77
2018-06-13T05:50:49.966Z,45.41
2018-06-13T05:51:49.446Z,33.20
2018-06-13T05:53:43.590Z,33.69
2018-06-13T05:54:43.513Z,40.28
2018-06-13T05:56:37.636Z,37.35
2018-06-13T05:57:37.621Z,40.04
2018-06-13T05:59:31.733Z,45.17
2018-06-13T06:00:31.727Z,44.92
2018-06-13T06:02:25.840Z,34.42
2018-06-13T06:03:25.808Z,42.48
2018-06-13T06:05:19.940Z,31.01
2018-06-13T06:06:19.897Z,37.84
2018-06-13T06:08:14.357Z,47.36
2018-06-13T06:09:14.132Z,42.72
2018-06-13T06:11:08.369Z,31.49
2018-06-13T06:12:08.395Z,37.60
2018-06-13T06:14:02.445Z,33.45
2018-06-13T06:15:02.457Z,38.33
2018-06-13T06:37:23.707Z,67.63
2018-06-13T06:38:23.658Z,59.33
2018-06-13T06:39:23.706Z,69.34
2018-06-13T06:40:23.715Z,58.59
2018-06-13T06:41:23.762Z,70.07
2018-06-13T06:42:23.665Z,55.42
2018-06-13T06:43:23.735Z,45.90
2018-06-13T06:44:23.700Z,43.95
2018-06-13T06:45:23.703Z,64.21
2018-06-13T06:46:23.729Z,49.07
2018-06-13T06:47:24.793Z,67.14
2018-06-13T06:48:23.721Z,72.27
2018-06-13T06:49:23.795Z,48.34
2018-06-13T06:50:23.764Z,66.89
2018-06-13T06:51:23.815Z,57.86
2018-06-13T06:52:23.800Z,56.40
2018-06-13T06:53:23.841Z,62.99
2018-06-13T06:54:23.777Z,62.99
2018-06-13T06:55:23.820Z,69.09
2018-06-13T06:56:23.877Z,50.05
2018-06-13T06:57:23.957Z,47.36
2018-06-13T06:58:23.871Z,63.72
2018-06-13T06:59:23.962Z,59.33
2018-06-13T07:00:23.850Z,50.29
2018-06-13T07:01:23.973Z,48.34
2018-06-13T07:02:23.909Z,47.61
2018-06-13T07:03:25.013Z,54.69
2018-06-13T07:04:23.925Z,43.46
2018-06-13T07:05:23.988Z,57.13
2018-06-13T07:06:23.934Z,47.85
2018-06-13T07:07:25.059Z,42.97
2018-06-13T07:08:23.969Z,64.70
2018-06-13T07:09:23.951Z,46.63
2018-06-13T07:10:24.033Z,62.74
2018-06-13T07:11:23.990Z,55.66
2018-06-13T07:12:24.029Z,63.96
2018-06-13T07:13:23.991Z,42.97
2018-06-13T07:14:36.028Z,57.62
2018-06-13T07:15:24.001Z,63.48
2018-06-13T07:16:29.061Z,58.84
2018-06-13T07:17:24.041Z,45.90
2018-06-13T07:18:24.068Z,49.07
2018-06-13T07:19:24.091Z,45.41
2018-06-13T07:20:24.061Z,48.83
2018-06-13T07:21:24.080Z,69.34
2018-06-13T07:22:24.096Z,41.75
2018-06-13T07:23:24.099Z,46.63
2018-06-13T07:24:24.134Z,62.99
2018-06-13T07:25:24.094Z,70.07
2018-06-13T07:26:24.234Z,71.04
2018-06-13T07:27:24.125Z,55.91
2018-06-13T07:28:24.247Z,66.89
2018-06-13T07:29:24.141Z,46.39
2018-06-13T07:30:24.300Z,67.38
2018-06-13T07:31:24.159Z,46.63
2018-06-13T07:32:25.210Z,59.33
2018-06-13T07:33:24.181Z,49.07
2018-06-13T07:34:24.286Z,55.18
2018-06-13T07:35:24.222Z,66.89
2018-06-13T07:36:24.293Z,60.30
2018-06-13T07:37:24.235Z,73.97
2018-06-13T07:38:24.304Z,64.45
2018-06-13T07:39:24.246Z,57.13
2018-06-13T07:40:24.341Z,52.98
2018-06-13T07:41:24.322Z,66.16
2018-06-13T07:42:24.334Z,65.43
2018-06-13T07:43:24.296Z,47.36
2018-06-13T07:44:24.357Z,48.58
2018-06-13T07:45:24.288Z,46.63
2018-06-13T07:46:24.349Z,46.14
2018-06-13T07:47:24.316Z,44.19
2018-06-13T07:48:24.371Z,64.45
2018-06-13T07:49:24.328Z,51.76
2018-06-13T07:50:24.399Z,47.12
2018-06-13T07:51:24.366Z,53.47
2018-06-13T07:52:24.417Z,67.87
2018-06-13T07:53:24.383Z,56.64
2018-06-13T07:54:24.417Z,59.57
2018-06-13T07:55:24.410Z,50.29
2018-06-13T07:56:24.419Z,45.65
2018-06-13T07:57:24.404Z,71.78
2018-06-13T07:58:24.545Z,60.06
2018-06-13T07:59:24.445Z,44.68
2018-06-13T08:00:24.558Z,62.50
2018-06-13T08:01:24.457Z,48.58
2018-06-13T08:02:24.581Z,67.38
2018-06-13T08:03:24.495Z,48.34
2018-06-13T08:04:24.584Z,49.80
2018-06-13T08:05:24.512Z,58.11
2018-06-13T08:06:24.585Z,54.69
2018-06-13T08:07:24.534Z,66.65
2018-06-13T08:08:24.692Z,59.81
2018-06-13T08:09:24.526Z,52.98
2018-06-13T08:10:24.627Z,60.79
2018-06-13T08:11:24.581Z,56.88
2018-06-13T08:12:29.454Z,57.86
2018-06-13T08:13:24.585Z,51.27
2018-06-13T08:14:24.670Z,55.91
2018-06-13T08:15:24.788Z,56.15
2018-06-13T08:16:24.699Z,52.98
2018-06-13T08:17:24.626Z,69.09
2018-06-13T08:18:25.707Z,65.92
2018-06-13T08:19:24.665Z,52.25
2018-06-13T08:20:24.674Z,48.34
2018-06-13T08:21:24.665Z,65.43
2018-06-13T08:22:25.775Z,69.34
2018-06-13T08:23:24.735Z,68.36
2018-06-13T08:24:24.855Z,71.78
2018-06-13T08:25:24.711Z,51.27
2018-06-13T08:26:26.924Z,53.47
2018-06-13T08:27:24.743Z,70.31
2018-06-13T08:28:25.852Z,72.75
2018-06-13T08:29:24.790Z,59.33
2018-06-13T08:30:24.948Z,70.31
2018-06-13T08:31:24.778Z,53.71
2018-06-13T08:32:29.648Z,43.70
2018-06-13T08:33:24.793Z,73.24
2018-06-13T08:34:24.980Z,64.45
2018-06-13T08:35:24.831Z,55.91
2018-06-13T08:36:25.031Z,69.34
2018-06-13T08:37:24.855Z,50.78
2018-06-13T08:38:26.062Z,50.29
2018-06-13T08:39:24.901Z,66.16
2018-06-13T08:40:27.005Z,72.27
2018-06-13T08:41:24.873Z,55.66
2018-06-13T08:42:24.916Z,62.26
2018-06-13T08:43:26.117Z,72.27
2018-06-13T08:44:24.888Z,57.13
2018-06-13T08:45:26.106Z,65.92
2018-06-13T08:46:24.944Z,69.82
2018-06-13T08:47:27.205Z,70.07
2018-06-13T08:48:24.954Z,58.11
2018-06-13T08:49:27.131Z,58.11
2018-06-13T08:50:24.979Z,54.69
2018-06-13T08:51:26.141Z,65.19
2018-06-13T08:52:24.995Z,54.44
2018-06-13T08:53:25.120Z,67.87
2018-06-13T08:54:25.003Z,55.66
2018-06-13T08:55:25.060Z,53.71
2018-06-13T08:56:25.011Z,53.47
2018-06-13T08:57:25.020Z,63.72
2018-06-13T08:58:25.021Z,59.57
2018-06-13T08:59:25.030Z,61.04
2018-06-13T09:00:25.044Z,55.91
2018-06-13T09:01:25.204Z,51.03
2018-06-13T09:02:25.069Z,64.94
2018-06-13T09:03:25.090Z,48.83
2018-06-13T09:04:25.105Z,46.39
2018-06-13T09:05:25.097Z,53.96
2018-06-13T09:06:25.102Z,49.32
2018-06-13T09:07:25.270Z,47.36
2018-06-13T09:08:25.127Z,70.31
2018-06-13T09:09:25.132Z,47.85
2018-06-13T09:10:25.152Z,49.80
2018-06-13T09:11:25.139Z,68.36
2018-06-13T09:12:25.179Z,52.73
2018-06-13T09:13:25.179Z,57.62
2018-06-13T09:14:25.186Z,60.06
2018-06-13T09:15:25.196Z,49.80
2018-06-13T09:16:25.230Z,63.96
2018-06-13T09:17:25.204Z,69.34
2018-06-13T09:18:25.225Z,54.93
2018-06-13T09:19:25.236Z,54.20
2018-06-13T09:20:25.334Z,70.80
2018-06-13T09:21:25.250Z,75.93
2018-06-13T09:22:25.351Z,70.56
2018-06-13T09:23:25.283Z,56.64
2018-06-13T09:24:25.329Z,71.78
2018-06-13T09:25:25.309Z,48.58
2018-06-13T09:26:27.461Z,56.40
2018-06-13T09:27:25.311Z,72.51
2018-06-13T09:28:27.431Z,50.78
2018-06-13T09:29:25.343Z,65.67
2018-06-13T09:30:25.504Z,53.96
2018-06-13T09:31:25.401Z,48.10
2018-06-13T09:32:25.513Z,46.39
2018-06-13T09:33:25.385Z,49.32
2018-06-13T09:34:26.553Z,67.87
2018-06-13T09:35:25.461Z,46.63
2018-06-13T09:36:25.577Z,48.58
2018-06-13T09:37:25.534Z,60.06
2018-06-13T09:38:25.553Z,58.59
2018-06-13T09:39:25.466Z,60.30
2018-06-13T09:40:32.116Z,59.08
2018-06-13T09:41:25.453Z,64.94
2018-06-13T09:42:25.574Z,64.45
2018-06-13T09:43:25.472Z,68.36
2018-06-13T09:44:25.580Z,59.81
2018-06-13T09:45:25.502Z,60.06
2018-06-13T09:46:27.683Z,55.42
2018-06-13T09:47:25.525Z,73.49
2018-06-13T09:48:27.667Z,62.50
2018-06-13T09:49:25.564Z,65.92
2018-06-13T09:50:31.567Z,63.23
2018-06-13T09:51:25.559Z,60.55
2018-06-13T09:52:25.674Z,58.11
2018-06-13T09:53:25.580Z,51.76
2018-06-13T09:54:27.714Z,67.87
2018-06-13T09:55:25.601Z,60.55
2018-06-13T09:56:25.769Z,53.71
2018-06-13T09:57:25.626Z,51.76
2018-06-13T09:58:25.788Z,51.27
2018-06-13T09:59:25.625Z,52.73
2018-06-13T10:00:30.590Z,48.34
2018-06-13T10:01:25.688Z,53.96
2018-06-13T10:02:25.879Z,51.76
2018-06-13T10:03:25.697Z,45.41
2018-06-13T10:04:30.590Z,69.34
2018-06-13T10:05:25.714Z,59.33
2018-06-13T10:06:26.857Z,67.14
2018-06-13T10:07:25.711Z,58.84
2018-06-13T10:08:25.835Z,75.44
2018-06-13T10:09:25.737Z,62.74
2018-06-13T10:10:25.862Z,69.34
2018-06-13T10:11:25.751Z,71.53
2018-06-13T10:12:25.850Z,48.83
2018-06-13T10:13:25.792Z,61.52
2018-06-13T10:14:26.917Z,69.82
2018-06-13T10:15:25.793Z,55.66
2018-06-13T10:16:25.863Z,52.00
2018-06-13T10:17:25.807Z,52.00
2018-06-13T10:18:25.921Z,61.77
2018-06-13T10:19:25.864Z,67.63
2018-06-13T10:20:26.990Z,69.09
2018-06-13T10:21:25.868Z,49.56
2018-06-13T10:22:26.029Z,55.91
2018-06-13T10:23:25.894Z,57.62
2018-06-13T10:24:27.068Z,50.78
2018-06-13T10:25:25.984Z,50.29
2018-06-13T10:26:26.991Z,49.32
2018-06-13T10:27:25.949Z,45.65
2018-06-13T10:28:26.076Z,61.52
2018-06-13T10:29:25.942Z,64.21
2018-06-13T10:30:26.099Z,47.61
2018-06-13T10:31:25.989Z,68.60
2018-06-13T10:32:27.148Z,53.22
2018-06-13T10:33:25.985Z,48.34
2018-06-13T10:34:26.113Z,65.19
2018-06-13T10:35:26.031Z,68.36
2018-06-13T10:36:26.144Z,52.00
2018-06-13T10:37:26.034Z,71.29
2018-06-13T10:38:31.068Z,58.59
2018-06-13T10:39:26.085Z,50.78
2018-06-13T10:40:27.196Z,62.50
2018-06-13T10:41:26.099Z,64.70
2018-06-13T10:42:28.247Z,67.87
2018-06-13T10:43:26.095Z,50.29
2018-06-13T10:44:26.295Z,56.15
2018-06-13T10:45:26.126Z,64.70
2018-06-13T10:46:26.190Z,58.59
2018-06-13T10:47:26.122Z,54.44
2018-06-13T10:48:26.188Z,67.63
2018-06-13T10:49:26.147Z,63.48
2018-06-13T10:50:27.245Z,56.40
2018-06-13T10:51:26.167Z,60.55
2018-06-13T10:52:26.329Z,66.65
2018-06-13T10:53:26.179Z,62.50
2018-06-13T10:54:26.412Z,69.58
2018-06-13T10:55:26.223Z,63.72
2018-06-13T10:56:27.391Z,56.40
2018-06-13T10:57:26.247Z,59.08
2018-06-13T10:58:26.390Z,49.32
2018-06-13T10:59:26.276Z,54.93
2018-06-13T11:00:26.399Z,64.21
2018-06-13T11:01:26.291Z,52.25
2018-06-13T11:02:26.442Z,71.53
2018-06-13T11:03:26.290Z,52.00
2018-06-13T11:04:28.506Z,43.46
2018-06-13T11:05:26.313Z,64.70
2018-06-13T11:06:26.496Z,45.90
2018-06-13T11:07:26.361Z,43.70
2018-06-13T11:08:27.548Z,58.59
2018-06-13T11:09:26.381Z,69.34
2018-06-13T11:10:26.524Z,47.85
2018-06-13T11:11:26.405Z,44.43
2018-06-13T11:12:26.538Z,52.98
2018-06-13T11:13:26.428Z,52.49
2018-06-13T11:14:26.516Z,66.89
2018-06-13T11:15:26.415Z,46.39
2018-06-13T11:16:32.251Z,60.79
2018-06-13T11:17:26.434Z,69.34
2018-06-13T11:18:26.666Z,53.96
2018-06-13T11:19:26.453Z,47.85
2018-06-13T11:20:26.699Z,57.62
2018-06-13T11:21:26.527Z,53.71
2018-06-13T11:22:26.571Z,52.49
2018-06-13T11:23:26.483Z,58.59
2018-06-13T11:24:26.593Z,63.23
2018-06-13T11:25:26.538Z,44.92
2018-06-13T11:26:26.606Z,44.68
2018-06-13T11:27:26.567Z,72.02
2018-06-13T11:28:28.828Z,72.51
2018-06-13T11:29:26.568Z,68.12
2018-06-13T11:30:26.670Z,60.30
2018-06-13T11:31:26.607Z,65.67
2018-06-13T11:32:26.647Z,43.21
2018-06-13T11:33:26.604Z,52.25
2018-06-13T11:34:28.733Z,46.39
2018-06-13T11:35:26.634Z,50.78
2018-06-13T11:36:26.719Z,50.78
2018-06-13T11:37:26.689Z,47.12
2018-06-13T11:38:28.798Z,66.41
2018-06-13T11:39:26.977Z,55.91
2018-06-13T11:40:26.843Z,51.27
2018-06-13T11:41:26.826Z,53.96
2018-06-13T11:42:28.860Z,61.77
2018-06-13T11:43:26.725Z,65.19
2018-06-13T11:44:27.787Z,57.86
2018-06-13T11:45:26.743Z,59.33
2018-06-13T11:46:26.857Z,62.01
2018-06-13T11:47:26.758Z,47.85
2018-06-13T11:48:26.857Z,67.63
2018-06-13T11:49:26.784Z,59.08
2018-06-13T11:50:27.811Z,49.07
2018-06-13T11:51:26.802Z,55.66
2018-06-13T11:52:28.844Z,54.44
2018-06-13T11:53:26.819Z,59.57
2018-06-13T11:54:26.926Z,58.11
2018-06-13T11:55:26.847Z,59.57
2018-06-13T11:56:32.575Z,57.62
2018-06-13T11:57:26.877Z,53.47
2018-06-13T11:58:26.962Z,52.49
2018-06-13T11:59:26.896Z,47.12
2018-06-13T12:00:29.045Z,63.96
2018-06-13T12:01:26.902Z,47.12
2018-06-13T12:02:31.579Z,66.89
2018-06-13T12:03:26.924Z,56.15
2018-06-13T12:04:27.046Z,67.14
2018-06-13T12:05:26.960Z,46.88
2018-06-13T12:06:27.053Z,56.64
2018-06-13T12:07:26.960Z,45.17
2018-06-13T12:08:27.072Z,49.80
2018-06-13T12:09:27.003Z,66.89
2018-06-13T12:10:27.097Z,47.36
2018-06-13T12:11:27.019Z,48.10
2018-06-13T12:12:27.123Z,65.19
2018-06-13T12:13:27.058Z,66.41
2018-06-13T12:14:27.047Z,72.02
2018-06-13T12:15:27.060Z,49.07
2018-06-13T12:16:27.103Z,62.74
2018-06-13T12:17:27.078Z,47.85
2018-06-13T12:18:27.200Z,64.21
2018-06-13T12:19:27.088Z,52.73
2018-06-13T12:20:27.214Z,47.61
2018-06-13T12:21:27.141Z,57.37
2018-06-13T12:22:27.273Z,54.20
2018-06-13T12:23:27.140Z,56.40
2018-06-13T12:24:27.239Z,73.00
2018-06-13T12:25:27.452Z,67.14
2018-06-13T12:29:17.934Z,51.76
2018-06-13T12:30:17.996Z,74.46
2018-06-13T12:31:18.011Z,50.78
2018-06-13T12:32:17.989Z,51.27
2018-06-13T12:33:17.962Z,65.43
2018-06-13T12:34:18.910Z,64.21
2018-06-13T12:35:18.017Z,57.62
2018-06-13T12:36:18.031Z,74.71
2018-06-13T12:37:18.017Z,73.97
2018-06-13T12:38:18.063Z,54.44
2018-06-13T12:39:18.060Z,63.96
2018-06-13T12:40:22.879Z,80.08
2018-06-13T12:41:18.073Z,63.96
2018-06-13T12:42:22.895Z,45.65
2018-06-13T12:43:18.852Z,44.43
2018-06-13T12:44:18.163Z,48.58
2018-06-13T12:45:18.246Z,55.66
2018-06-13T12:46:18.137Z,55.42
2018-06-13T12:47:55.128Z,50.54
2018-06-13T12:48:18.166Z,59.33
2018-06-13T12:49:18.230Z,59.08
2018-06-13T12:58:01.217Z,47.12
2018-06-13T12:58:59.370Z,48.58
2018-06-13T12:59:59.269Z,67.63
2018-06-13T13:00:59.291Z,52.73
2018-06-13T13:01:59.297Z,52.98
2018-06-13T13:02:59.301Z,68.36
2018-06-13T13:03:59.378Z,55.91
2018-06-13T13:04:59.338Z,61.04
2018-06-13T13:05:59.354Z,48.83
2018-06-13T13:06:59.355Z,49.80
2018-06-13T13:07:59.372Z,60.30
2018-06-13T13:08:59.381Z,57.62
2018-06-13T13:09:59.383Z,66.89
2018-06-13T13:10:59.439Z,57.62
2018-06-13T13:11:59.429Z,50.05
2018-06-13T13:12:59.444Z,59.08
2018-06-13T13:14:00.520Z,69.58
2018-06-13T13:14:59.441Z,60.55
2018-06-13T13:16:00.486Z,60.79
2018-06-13T13:16:59.468Z,62.50
2018-06-13T13:17:59.531Z,50.54
2018-06-13T13:18:59.586Z,69.58
2018-06-13T13:19:59.495Z,50.78
2018-06-13T13:20:59.530Z,58.84
2018-06-13T13:21:59.568Z,67.63
2018-06-13T13:22:59.541Z,63.72
2018-06-13T13:23:59.541Z,65.19
2018-06-13T13:24:59.589Z,67.87
2018-06-13T13:25:59.645Z,65.67
2018-06-13T13:26:59.625Z,44.43
2018-06-13T13:27:59.761Z,55.42
2018-06-13T13:28:59.619Z,67.87
2018-06-13T13:29:59.683Z,57.37
2018-06-13T13:31:06.264Z,58.11
2018-06-13T13:31:59.718Z,48.34
2018-06-13T13:33:00.831Z,66.65
2018-06-13T13:33:59.864Z,67.38
2018-06-13T13:35:00.031Z,47.12
2018-06-13T13:35:59.700Z,47.36
2018-06-13T13:37:00.856Z,62.50
2018-06-13T13:37:59.743Z,62.01
2018-06-13T13:38:59.765Z,57.62
2018-06-13T13:39:59.776Z,51.03
2018-06-13T13:41:02.133Z,58.11
2018-06-13T13:41:59.791Z,45.65
2018-06-13T13:42:59.753Z,48.10
2018-06-13T13:43:59.883Z,73.73
2018-06-13T13:44:59.799Z,50.78
2018-06-13T13:46:05.735Z,43.46
2018-06-13T13:46:59.816Z,74.95
2018-06-13T13:47:59.954Z,56.64
2018-06-13T13:48:59.847Z,67.14
2018-06-13T13:50:00.976Z,44.92
2018-06-13T13:50:59.860Z,52.73
2018-06-13T13:52:04.750Z,59.33
2018-06-13T13:52:59.914Z,56.40
2018-06-13T13:54:00.038Z,64.70
2018-06-13T13:54:59.919Z,54.93
2018-06-13T13:55:59.929Z,53.96
2018-06-13T13:56:59.924Z,73.97
2018-06-13T13:58:00.013Z,48.83
2018-06-13T13:58:59.962Z,60.55
2018-06-13T14:00:02.107Z,46.88
2018-06-13T14:01:00.029Z,59.33
2018-06-13T14:02:02.079Z,48.58
2018-06-13T14:03:00.064Z,62.01
2018-06-13T14:04:00.027Z,60.79
2018-06-13T14:05:00.131Z,70.31
2018-06-13T14:06:05.806Z,67.63
2018-06-13T14:07:00.330Z,53.71
2018-06-13T14:08:00.261Z,56.88
2018-06-13T14:09:00.041Z,46.14
2018-06-13T14:10:00.171Z,69.34
2018-06-13T14:11:00.108Z,50.05
2018-06-13T14:12:00.201Z,48.10
2018-06-13T14:13:00.109Z,61.04
2018-06-13T14:14:04.809Z,53.96
2018-06-13T14:15:00.148Z,62.50
2018-06-13T14:16:00.152Z,48.58
2018-06-13T14:17:02.351Z,69.82
2018-06-13T14:18:00.227Z,50.54
2018-06-13T14:19:00.262Z,60.79
2018-06-13T14:20:00.182Z,67.87
2018-06-13T14:21:00.262Z,62.99
2018-06-13T14:22:00.263Z,46.88
2018-06-13T14:23:00.260Z,50.29
2018-06-13T14:24:00.230Z,59.33
2018-06-13T14:25:22.314Z,48.10
2018-06-13T14:26:00.347Z,53.71
2018-06-13T14:27:05.352Z,68.36
2018-06-13T14:28:00.291Z,60.55
2018-06-13T14:29:30.306Z,49.80
2018-06-13T14:30:00.331Z,55.66
2018-06-13T14:31:00.323Z,78.37
2018-06-13T14:32:05.353Z,63.72
2018-06-13T14:33:00.320Z,75.20
2018-06-13T14:34:01.500Z,58.35
2018-06-13T14:35:00.357Z,46.14
2018-06-13T14:36:01.463Z,69.09
2018-06-13T14:37:00.363Z,43.95
2018-06-13T14:38:02.498Z,64.94
2018-06-13T14:39:00.401Z,65.43
2018-06-13T14:40:00.494Z,49.80
2018-06-13T14:41:00.424Z,51.03
2018-06-13T14:42:00.485Z,67.14
2018-06-13T14:43:00.475Z,47.85
2018-06-13T14:44:00.501Z,49.32
2018-06-13T14:45:00.450Z,56.40
2018-06-13T14:46:07.309Z,48.83
2018-06-13T14:47:00.549Z,60.79
2018-06-13T14:48:00.585Z,51.76
2018-06-13T14:49:00.627Z,73.49
2018-06-13T14:50:11.385Z,71.78
2018-06-13T14:51:00.532Z,70.07
2018-06-13T14:52:07.356Z,54.93
2018-06-13T14:53:00.608Z,66.65
2018-06-13T14:54:07.369Z,69.58
2018-06-13T14:55:00.597Z,70.31
2018-06-13T14:56:00.714Z,52.49
2018-06-13T14:57:00.808Z,72.27
2018-06-13T14:58:06.323Z,66.16
2018-06-13T14:59:00.618Z,45.17
2018-06-13T15:00:01.726Z,57.13
2018-06-13T15:01:00.637Z,57.37
2018-06-13T15:02:00.715Z,63.72
2018-06-13T15:03:00.653Z,68.36
2018-06-13T15:04:02.789Z,66.89
2018-06-13T15:05:00.682Z,50.05
2018-06-13T15:06:01.773Z,68.60
2018-06-13T15:07:00.706Z,57.13
2018-06-13T15:08:05.396Z,58.84
2018-06-13T15:09:00.736Z,47.12
2018-06-13T15:10:00.763Z,43.46
2018-06-13T15:11:01.804Z,69.58
2018-06-13T15:12:00.799Z,47.36
2018-06-13T15:13:00.942Z,68.12
2018-06-13T15:14:00.787Z,71.78
2018-06-13T15:15:00.897Z,47.12
2018-06-13T15:16:00.793Z,44.92
2018-06-13T15:17:00.810Z,67.63
2018-06-13T15:18:00.909Z,68.85
2018-06-13T15:19:00.905Z,51.03
2018-06-13T15:20:00.855Z,60.30
2018-06-13T15:21:00.947Z,48.58